Time;durP1;ratioP1;P1;durP2;ratioP2;P2;SDS_P1;SDS_P2;PMS_P1;PMS_P2;Temp;Humidity;BMP_temperature;BMP_pressure;BME280_temperature;BME280_humidity;BME280_pressure;Samples;Min_cycle;Max_cycle;Signal;HPM_P1;HPM_P2
2023/05/04 00:25:01;;;;;;;19.07;12.63;;;3.80;99.90;;;;;;4853369;28;20758;-83
2023/05/04 00:50:37;;;;;;;20.83;14.27;;;3.80;99.90;;;;;;4823475;29;20194;-84
2023/05/04 01:11:01;;;;;;;20.23;14.13;;;3.50;99.90;;;;;;4808960;29;20282;-84
2023/05/04 01:41:07;;;;;;;22.67;16.60;;;3.30;99.90;;;;;;4664178;29;20629;-85
2023/05/04 02:06:53;;;;;;;22.23;17.10;;;3.40;99.90;;;;;;4679406;29;20255;-84
2023/05/04 02:57:19;;;;;;;23.97;17.87;;;2.90;99.90;;;;;;4924618;28;20263;-84
2023/05/04 03:27:25;;;;;;;23.90;17.23;;;2.70;99.90;;;;;;4850261;28;20567;-84
2023/05/04 03:48:04;;;;;;;32.37;21.23;;;2.80;99.90;;;;;;4617072;29;20355;-84
2023/05/04 04:13:20;;;;;;;22.20;16.90;;;4.40;99.90;;;;;;4613783;30;20297;-82
2023/05/04 04:38:38;;;;;;;33.53;22.40;;;5.60;99.90;;;;;;4739001;29;20207;-84
2023/05/04 04:58:59;;;;;;;27.77;17.47;;;6.60;98.20;;;;;;4710726;29;20304;-85
2023/05/04 05:49:54;;;;;;;18.17;11.57;;;9.20;86.70;;;;;;4594888;29;20233;-81
2023/05/04 05:54:14;;;;;;;17.70;10.93;;;9.50;83.40;;;;;;4523910;29;20583;-81
2023/05/04 06:15:09;;;;;;;11.20;8.00;;;10.90;79.70;;;;;;4624148;29;20561;-81
2023/05/04 06:40:20;;;;;;;8.03;5.80;;;12.20;72.90;;;;;;4586949;29;20309;-84
2023/05/04 07:41:19;;;;;;;7.67;5.23;;;14.40;48.40;;;;;;4685716;29;21158;-81
2023/05/04 08:06:02;;;;;;;6.43;3.60;;;15.10;45.40;;;;;;4849735;28;20531;-86
2023/05/04 08:47:16;;;;;;;2.30;1.83;;;16.20;41.00;;;;;;4677360;29;20297;-83
2023/05/04 09:17:37;;;;;;;3.33;2.13;;;16.10;39.30;;;;;;4769411;29;20258;-86
2023/05/04 09:22:06;;;;;;;4.13;1.90;;;16.30;38.90;;;;;;4748590;29;20543;-84
2023/05/04 09:43:05;;;;;;;3.60;2.27;;;16.20;38.10;;;;;;4916527;28;20312;-86
2023/05/04 10:08:15;;;;;;;4.90;2.30;;;16.20;37.20;;;;;;4779984;29;20345;-83
2023/05/04 10:33:40;;;;;;;3.83;2.43;;;15.90;37.00;;;;;;4735982;29;20250;-86
2023/05/04 11:08:36;;;;;;;2.63;2.23;;;15.80;36.70;;;;;;4755475;29;20682;-87
2023/05/04 11:29:00;;;;;;;3.17;2.30;;;15.60;36.80;;;;;;4546063;30;20517;-83
2023/05/04 12:25:32;;;;;;;3.90;2.60;;;15.50;36.40;;;;;;4672692;29;20955;-85
2023/05/04 12:29:44;;;;;;;3.30;2.50;;;15.70;36.60;;;;;;4683463;29;21108;-84
2023/05/04 12:50:38;;;;;;;3.70;2.97;;;16.40;36.30;;;;;;4786066;28;20284;-83
2023/05/04 13:30:42;;;;;;;3.17;2.80;;;18.40;35.10;;;;;;4748716;28;20709;-85
2023/05/04 13:51:14;;;;;;;3.87;3.10;;;18.40;35.90;;;;;;4674445;29;20247;-80
2023/05/04 14:41:35;;;;;;;3.10;2.80;;;25.10;32.40;;;;;;4618592;29;20547;-84
2023/05/04 14:57:19;;;;;;;5.10;2.75;;;24.70;30.60;;;;;;4663338;29;20201;-84
2023/05/04 15:22:29;;;;;;;5.30;2.80;;;22.80;31.80;;;;;;4824128;29;20305;-87
2023/05/04 15:48:01;;;;;;;4.97;2.65;;;20.80;32.80;;;;;;4811538;29;20207;-85
2023/05/04 16:08:02;;;;;;;3.03;2.70;;;23.20;31.60;;;;;;4671340;30;20485;-88
2023/05/04 16:33:46;;;;;;;5.47;3.60;;;16.90;33.50;;;;;;4648790;30;20499;-88
2023/05/04 17:04:04;;;;;;;3.97;2.23;;;16.00;36.30;;;;;;4754690;29;20264;-85
2023/05/04 17:24:14;;;;;;;4.37;2.40;;;15.20;38.00;;;;;;4578038;30;20275;-86
2023/05/04 17:49:49;;;;;;;6.23;3.37;;;14.20;40.80;;;;;;4737792;29;20414;-87
2023/05/04 18:14:48;;;;;;;8.27;3.80;;;12.90;44.60;;;;;;4660428;30;21142;-87
2023/05/04 18:49:56;;;;;;;10.43;4.17;;;11.40;77.50;;;;;;4652657;29;20557;-85
2023/05/04 19:05:47;;;;;;;11.03;4.07;;;10.90;79.50;;;;;;4751903;29;20330;-85
2023/05/04 19:10:12;;;;;;;8.93;3.63;;;10.80;80.30;;;;;;4727785;29;20715;-84
2023/05/04 21:15:51;;;;;;;19.17;10.00;;;8.20;91.30;;;;;;4629656;30;20258;-86
2023/05/04 21:41:08;;;;;;;18.83;9.37;;;7.80;89.60;;;;;;4635715;30;20376;-87
2023/05/04 21:56:55;;;;;;;15.50;10.30;;;7.80;91.80;;;;;;4640173;30;20208;-86
2023/05/04 22:22:12;;;;;;;17.70;10.27;;;7.70;92.30;;;;;;4587367;30;20288;-87
2023/05/04 22:42:27;;;;;;;16.47;10.63;;;7.60;93.10;;;;;;4585514;30;20236;-85
2023/05/04 23:23:02;;;;;;;19.33;12.23;;;7.30;95.80;;;;;;4755315;29;20202;-86
2023/05/04 23:53:11;;;;;;;19.27;11.57;;;7.20;95.30;;;;;;4664911;29;20229;-85
